createdAt,value
2019-04-06T00:02:33.626Z,100409.91
2019-04-06T00:11:22.483Z,100404.20
2019-04-06T00:16:29.625Z,100404.48
2019-04-06T00:21:36.504Z,100402.59
2019-04-06T00:28:10.627Z,100406.09
2019-04-06T00:35:49.525Z,100415.95
2019-04-06T00:44:34.593Z,100418.40
2019-04-06T00:52:23.653Z,100419.89
2019-04-06T00:57:30.490Z,100424.02
2019-04-06T01:02:37.618Z,100424.02
2019-04-06T01:07:44.616Z,100435.78
2019-04-06T01:13:50.596Z,100434.22
2019-04-06T01:20:57.920Z,100437.39
2019-04-06T01:27:54.687Z,100443.80
2019-04-06T01:33:01.527Z,100441.02
2019-04-06T01:38:08.591Z,100441.02
2019-04-06T01:50:22.044Z,100455.81
2019-04-06T01:55:29.047Z,100445.27
2019-04-06T02:00:36.263Z,100460.98
2019-04-06T02:05:43.553Z,100460.98
2019-04-06T02:10:50.594Z,100450.95
2019-04-06T02:15:57.582Z,100467.52
2019-04-06T02:21:04.633Z,100468.53
2019-04-06T02:26:11.599Z,100469.25
2019-04-06T02:31:49.241Z,100471.83
2019-04-06T02:37:15.273Z,100473.86
2019-04-06T02:42:25.790Z,100473.86
2019-04-06T02:47:32.593Z,100474.23
2019-04-06T02:52:39.583Z,100475.45
2019-04-06T02:57:46.476Z,100476.59
2019-04-06T03:02:53.694Z,100476.59
2019-04-06T03:08:01.606Z,100469.98
2019-04-06T03:13:08.596Z,100476.20
2019-04-06T03:18:15.722Z,100471.62
2019-04-06T03:23:25.199Z,100471.52
2019-04-06T03:28:31.925Z,100476.34
2019-04-06T03:33:38.937Z,100476.34
2019-04-06T03:38:46.063Z,100475.06
2019-04-06T03:43:53.391Z,100479.33
2019-04-06T03:49:00.593Z,100478.10
2019-04-06T03:54:08.611Z,100476.66
2019-04-06T03:59:16.599Z,100476.66
2019-04-06T04:04:23.597Z,100468.55
2019-04-06T04:09:30.592Z,100466.12
2019-04-06T04:14:37.456Z,100473.89
2019-04-06T04:19:44.587Z,100473.89
2019-04-06T04:24:51.582Z,100470.77
2019-04-06T04:29:58.600Z,100471.88
2019-04-06T04:35:06.320Z,100477.13
2019-04-06T04:40:13.575Z,100477.13
2019-04-06T04:45:20.586Z,100472.19
2019-04-06T04:50:27.603Z,100472.48
2019-04-06T04:55:34.565Z,100479.64
2019-04-06T05:00:41.595Z,100482.90
2019-04-06T05:05:48.575Z,100493.29
2019-04-06T05:10:55.579Z,100507.29
2019-04-06T05:16:20.452Z,100507.29
2019-04-06T05:21:27.453Z,100504.09
2019-04-06T05:26:37.958Z,100498.34
2019-04-06T05:31:42.547Z,100501.50
2019-04-06T05:36:49.480Z,100499.97
2019-04-06T05:41:56.468Z,100506.14
2019-04-06T05:47:03.603Z,100510.63
2019-04-06T05:52:10.556Z,100509.71
2019-04-06T05:57:17.465Z,100526.47
2019-04-06T06:02:24.535Z,100526.47
2019-04-06T06:07:31.489Z,100525.37
2019-04-06T06:12:38.530Z,100531.47
2019-04-06T06:17:45.573Z,100530.36
2019-04-06T06:22:52.577Z,100534.80
2019-04-06T06:28:00.392Z,100536.94
2019-04-06T06:33:07.601Z,100536.94
2019-04-06T06:38:14.583Z,100543.34
2019-04-06T06:43:21.606Z,100540.73
2019-04-06T06:48:28.711Z,100525.97
2019-04-06T06:53:35.576Z,100525.97
2019-04-06T06:58:42.466Z,100536.41
2019-04-06T07:03:49.485Z,100536.41
2019-04-06T07:08:56.456Z,100536.66
2019-04-06T07:14:03.674Z,100533.02
2019-04-06T07:19:10.616Z,100533.02
2019-04-06T07:24:17.493Z,100537.48
2019-04-06T07:29:24.484Z,100524.77
2019-04-06T07:34:31.565Z,100524.77
2019-04-06T07:39:38.576Z,100540.17
2019-04-06T07:44:45.576Z,100536.69
2019-04-06T07:49:52.607Z,100533.80
2019-04-06T07:54:59.576Z,100527.48
2019-04-06T08:00:07.639Z,100532.21
2019-04-06T08:05:16.025Z,100532.21
2019-04-06T08:10:23.262Z,100523.56
2019-04-06T08:15:30.415Z,100524.38
2019-04-06T08:20:37.582Z,100525.73
2019-04-06T08:25:44.593Z,100526.97
2019-04-06T08:30:51.575Z,100524.73
2019-04-06T08:35:58.534Z,100525.16
2019-04-06T08:41:05.557Z,100517.25
2019-04-06T08:46:12.526Z,100510.76
2019-04-06T08:51:19.681Z,100501.94
2019-04-06T08:56:26.605Z,100501.94
2019-04-06T09:01:33.573Z,100509.71
2019-04-06T09:06:41.789Z,100509.22
2019-04-06T09:11:48.571Z,100509.22
2019-04-06T09:16:55.486Z,100497.09
2019-04-06T09:22:02.609Z,100504.95
2019-04-06T09:27:09.699Z,100504.95
2019-04-06T09:32:17.266Z,100483.06
2019-04-06T09:37:23.330Z,100489.89
2019-04-06T09:42:30.707Z,100485.77
2019-04-06T09:47:50.368Z,100475.55
2019-04-06T09:53:15.270Z,100468.21
2019-04-06T09:58:44.268Z,100468.21
2019-04-06T10:04:00.065Z,100454.50
2019-04-06T10:09:24.184Z,100454.50
2019-04-06T10:14:42.401Z,100460.64
2019-04-06T10:20:08.735Z,100456.45
2019-04-06T10:25:46.864Z,100448.55
2019-04-06T10:31:12.068Z,100454.96
2019-04-06T10:36:45.073Z,100453.99
2019-04-06T10:42:01.784Z,100453.99
2019-04-06T10:47:27.443Z,100446.70
2019-04-06T10:52:44.492Z,100446.56
2019-04-06T10:58:09.304Z,100448.02
2019-04-06T11:03:27.588Z,100446.87
2019-04-06T11:08:59.311Z,100445.84
2019-04-06T11:14:28.320Z,100442.45
2019-04-06T11:20:09.862Z,100452.07
2019-04-06T11:25:22.380Z,100445.21
2019-04-06T11:30:55.386Z,100439.89
2019-04-06T11:36:27.687Z,100438.86
2019-04-06T11:42:05.705Z,100430.68
2019-04-06T11:47:32.650Z,100423.69
2019-04-06T11:52:45.483Z,100410.82
2019-04-06T11:58:14.263Z,100410.82
2019-04-06T12:03:46.705Z,100410.19
2019-04-06T12:09:15.266Z,100409.05
2019-04-06T12:14:34.245Z,100401.49
2019-04-06T12:19:56.337Z,100399.83
2019-04-06T12:25:16.253Z,100387.24
2019-04-06T12:30:42.592Z,100382.17
2019-04-06T12:35:59.573Z,100385.91
2019-04-06T12:41:28.261Z,100374.23
2019-04-06T12:46:54.099Z,100374.23
2019-04-06T12:52:10.448Z,100363.73
2019-04-06T12:57:35.907Z,100361.90
2019-04-06T13:03:00.788Z,100356.15
2019-04-06T13:08:29.356Z,100344.05
2019-04-06T13:13:54.892Z,100351.11
2019-04-06T13:19:20.702Z,100351.11
2019-04-06T13:24:46.280Z,100342.97
2019-04-06T13:30:17.094Z,100345.55
2019-04-06T13:35:58.249Z,100344.14
2019-04-06T13:41:32.643Z,100330.45
2019-04-06T13:46:49.834Z,100322.05
2019-04-06T13:52:04.257Z,100322.05
2019-04-06T13:57:32.259Z,100330.18
2019-04-06T14:02:57.258Z,100324.69
2019-04-06T14:08:21.803Z,100323.91
2019-04-06T14:13:47.702Z,100324.89
2019-04-06T14:19:16.772Z,100324.89
2019-04-06T14:24:45.032Z,100334.40
2019-04-06T14:30:20.311Z,100337.98
2019-04-06T14:35:53.253Z,100332.51
2019-04-06T14:41:12.432Z,100344.34
2019-04-06T14:46:45.475Z,100326.16
2019-04-06T14:51:59.326Z,100322.90
2019-04-06T14:57:24.737Z,100335.48
2019-04-06T15:02:46.261Z,100325.69
2019-04-06T15:08:00.013Z,100325.69
2019-04-06T15:13:25.447Z,100334.12
2019-04-06T15:18:54.425Z,100333.38
2019-04-06T15:24:21.281Z,100331.28
2019-04-06T15:29:52.300Z,100331.28
2019-04-06T15:35:21.260Z,100327.30
2019-04-06T15:40:34.822Z,100327.30
2019-04-06T15:45:59.504Z,100328.95
2019-04-06T15:51:19.956Z,100320.75
2019-04-06T15:56:42.583Z,100327.12
2019-04-06T16:02:07.147Z,100318.21
2019-04-06T16:07:38.267Z,100326.25
2019-04-06T16:13:02.541Z,100320.64
2019-04-06T16:18:28.293Z,100321.38
2019-04-06T16:23:44.641Z,100324.06
2019-04-06T16:33:14.779Z,100325.73
2019-04-06T16:38:29.272Z,100324.03
2019-04-06T16:43:49.391Z,100324.03
2019-04-06T16:49:04.584Z,100336.01
2019-04-06T16:54:29.376Z,100344.45
2019-04-06T16:59:58.975Z,100344.45
2019-04-06T17:05:25.419Z,100339.30
2019-04-06T17:10:51.256Z,100342.11
2019-04-06T17:16:15.638Z,100354.70
2019-04-06T17:21:40.999Z,100350.78
2019-04-06T17:27:02.522Z,100353.09
2019-04-06T17:32:34.397Z,100360.84
2019-04-06T17:37:52.584Z,100356.81
2019-04-06T17:43:17.462Z,100369.31
2019-04-06T17:48:42.251Z,100369.31
2019-04-06T17:54:07.410Z,100383.97
2019-04-06T18:02:51.926Z,100399.15
2019-04-06T18:08:20.532Z,100399.15
2019-04-06T18:13:37.245Z,100407.02
2019-04-06T18:18:44.497Z,100407.02
2019-04-06T18:23:51.513Z,100417.89
2019-04-06T18:28:58.465Z,100423.58
2019-04-06T18:34:05.543Z,100423.58
2019-04-06T18:39:12.625Z,100431.92
2019-04-06T18:44:20.125Z,100435.70
2019-04-06T18:49:27.599Z,100435.70
2019-04-06T18:54:33.387Z,100432.59
2019-04-06T18:59:43.454Z,100432.59
2019-04-06T19:04:50.608Z,100442.76
2019-04-06T19:09:58.080Z,100448.92
2019-04-06T19:15:07.265Z,100448.92
2019-04-06T19:20:14.695Z,100447.12
2019-04-06T19:25:21.809Z,100448.47
2019-04-06T19:30:29.448Z,100448.47
2019-04-06T19:35:36.814Z,100442.95
2019-04-06T19:40:43.847Z,100444.89
2019-04-06T19:45:52.925Z,100446.87
2019-04-06T19:51:01.417Z,100446.33
2019-04-06T19:56:08.715Z,100448.87
2019-04-06T20:01:16.931Z,100449.64
2019-04-06T20:06:24.955Z,100449.38
2019-04-06T20:11:31.270Z,100444.54
2019-04-06T20:16:38.571Z,100446.84
2019-04-06T20:21:44.345Z,100442.38
2019-04-06T20:26:50.351Z,100446.97
2019-04-06T20:31:56.388Z,100447.27
2019-04-06T20:37:03.627Z,100447.66
2019-04-06T20:42:10.621Z,100445.38
2019-04-06T20:48:03.893Z,100447.80
2019-04-06T20:56:56.216Z,100439.97
2019-04-06T21:01:58.868Z,100446.08
2019-04-06T21:07:05.918Z,100449.23
2019-04-06T21:12:13.085Z,100448.19
2019-04-06T21:17:19.636Z,100446.67
2019-04-06T21:22:30.633Z,100449.25
2019-04-06T21:27:38.582Z,100450.41
2019-04-06T21:32:44.686Z,100450.41
2019-04-06T21:37:51.627Z,100439.38
2019-04-06T21:43:00.253Z,100435.68
2019-04-06T21:48:06.969Z,100435.68
2019-04-06T21:53:15.011Z,100437.83
2019-04-06T21:58:22.427Z,100433.80
2019-04-06T22:03:30.623Z,100426.98
2019-04-06T22:08:37.636Z,100427.30
2019-04-06T22:13:44.512Z,100428.62
2019-04-06T22:18:52.059Z,100432.48
2019-04-06T22:24:00.217Z,100432.48
2019-04-06T22:29:08.162Z,100418.43
2019-04-06T22:34:16.075Z,100413.31
2019-04-06T22:39:23.488Z,100413.31
2019-04-06T22:44:30.594Z,100412.46
2019-04-06T22:49:37.633Z,100409.16
2019-04-06T22:54:43.597Z,100413.28
2019-04-06T22:59:50.735Z,100412.66
2019-04-06T23:05:14.275Z,100412.66
2019-04-06T23:10:20.351Z,100406.30
2019-04-06T23:15:26.328Z,100411.66
2019-04-06T23:20:33.477Z,100405.80
2019-04-06T23:25:40.584Z,100407.72
2019-04-06T23:30:48.011Z,100411.30
2019-04-06T23:35:55.697Z,100404.91
2019-04-06T23:41:02.607Z,100420.44
2019-04-06T23:46:08.670Z,100419.30
2019-04-06T23:51:15.596Z,100417.85
2019-04-06T23:56:22.618Z,100413.24
